METAR Data
IDs: Format: Raw Decoded Include TAF

Data at: 1731 UTC 21 Sep 2018

KBPT 211653Z 15008KT 10SM BKN028 31/24 A2999 RMK AO2 SLP154 T03110244
KBPT 211604Z 11010G19KT 10SM SCT025 SCT032 BKN041 29/23 A2999 RMK AO2 LTG DSNT N AND NE T02890228
KBPT 211553Z 11010KT 10SM FEW020 30/26 A2999 RMK AO2 LTG DSNT N AND NE SLP154 T03000256
KBPT 211453Z COR 16006KT 10SM FEW020 30/25 A2999 RMK AO2 LTG DSNT NE TSE1359 SLP154 60000 T03000250 50003
KBPT 211402Z 15005KT 10SM FEW023 FEW055 29/26 A2999 RMK AO2 TSE1359 T02940256
KBPT 211353Z 14005KT 10SM TS SCT024 SCT055 29/26 A2999 RMK AO2 RAB31E46 TSB44 SLP155 P0000 T02890261
KBPT 211350Z 15004KT 10SM TS FEW024 FEW055 29/26 A2999 RMK AO2 RAB31E46 TSB44 P0000
KBPT 211253Z 00000KT 10SM SCT015 SCT035 28/26 A2998 RMK AO2 RAE07 SLP152 P0000 T02780256
KBPT 211153Z 17003KT 10SM -RA SCT015 SCT030 27/25 A2997 RMK AO2 RAE04B37 SLP148 P0000 60005 70005 T02720250 10278 20272 53007
KBPT 211053Z AUTO 15005KT 10SM -RA FEW120 27/25 A2995 RMK AO2 RAB35 SLP143 P0000 T02720250
KBPT 210953Z AUTO 17006KT 10SM CLR 27/24 A2995 RMK AO2 RAE12 SLP140 P0005 T02720244
KBPT 210853Z AUTO 18005KT 5SM -RA FEW030 SCT100 28/25 A2995 RMK AO2 RAB49 SLP140 P0000 60000 T02780250 56008
KBPT 210753Z AUTO 16007KT 10SM CLR 28/24 A2995 RMK AO2 SLP140 T02780244
KBPT 210653Z AUTO 16005KT 10SM CLR 27/24 A2996 RMK AO2 SLP144 T02720239
KBPT 210553Z AUTO 16006KT 10SM CLR 27/24 A2997 RMK AO2 SLP148 T02720244 10300 20267 403390239 58003
KBPT 210453Z AUTO 15006KT 10SM CLR 27/24 A2997 RMK AO2 SLP150 T02720244
KBPT 210353Z AUTO 15006KT 10SM CLR 27/24 A2998 RMK AO2 SLP151 T02670239
KBPT 210253Z AUTO 18004KT 10SM CLR 27/24 A2998 RMK AO2 SLP151 T02670239 53018
KBPT 210153Z 16005KT 10SM SCT030 27/24 A2995 RMK AO2 SLP142 T02720239
KBPT 210053Z 16007KT 10SM SCT030 28/24 A2993 RMK AO2 SLP133 T02780244
KBPT 202353Z 16010KT 10SM SCT038 30/24 A2992 RMK AO2 SLP132 T03000239 10339 20300 50000
KBPT 202253Z 17008KT 10SM FEW038 31/23 A2993 RMK AO2 SLP133 T03110233
KBPT 202153Z 18011KT 10SM SCT038 32/23 A2992 RMK AO2 SLP133 T03220228
KBPT 202053Z 13011KT 10SM BKN035 BKN048 BKN060 33/23 A2992 RMK AO2 SLP132 T03330233 56021
KBPT 201953Z AUTO 16010KT 10SM BKN037 34/23 A2994 RMK AO2 SLP139 T03390228
KBPT 201853Z 18008KT 10SM BKN039 BKN047 BKN080 33/23 A2996 RMK AO2 SLP145 T03330233
KBPT 201753Z 15010KT 10SM FEW038 33/22 A2999 RMK AO2 SLP153 T03330222 10333 20244 58002
KBPT 201653Z 12008KT 10SM FEW033 FEW045 32/24 A3000 RMK AO2 LTG DSNT N SLP157 T03220239
KBPT 201553Z 12005KT 10SM FEW028 SCT036 BKN044 30/24 A3000 RMK AO2 SLP159 T03000244
KBPT 201453Z 17003KT 10SM SCT024 30/24 A2999 RMK AO2 SLP155 T03000244 53013
KBPT 201425Z 16005KT 10SM BKN025 29/25 A2999 RMK AO2 T02940250
KBPT 201353Z 00000KT 9SM FEW027 29/25 A2998 RMK AO2 SLP151 T02890250
KBPT 201253Z 05004KT 6SM BR SCT026 26/25 A2996 RMK AO2 SLP146 T02610250
KBPT 201153Z 03003KT 9SM CLR 25/23 A2995 RMK AO2 SLP142 T02500233 10261 20239 53006
KBPT 201125Z 00000KT 3SM BR CLR 25/23 A2995 RMK AO2 T02500233
KBPT 201114Z 00000KT 1 3/4SM BR CLR 24/23 A2995 RMK AO2 T02390228
KBPT 201102Z 00000KT 4SM BR CLR 24/23 A2994 RMK AO2 T02440233
KBPT 201100Z 00000KT 1 3/4SM BR CLR 24/23 A2994 RMK AO2 T02440233
KBPT 201053Z 00000KT 7SM CLR 24/23 A2994 RMK AO2 SLP137 T02440233
KBPT 201048Z AUTO 00000KT 1 3/4SM BR CLR 24/23 A2994 RMK AO2
KBPT 201020Z AUTO 00000KT 9SM CLR 25/24 A2994 RMK AO2 T02500239
KBPT 201013Z AUTO 00000KT 2SM BR CLR 25/24 A2994 RMK AO2 T02500239
KBPT 201004Z AUTO 02003KT 1 1/4SM BR CLR 25/23 A2994 RMK AO2 T02500233
KBPT 200953Z AUTO 00000KT 2 1/2SM BR CLR 24/23 A2994 RMK AO2 VIS 1 1/4V3 SLP136 T02440233
KBPT 200948Z AUTO 00000KT 1SM R12/P6000FT BR CLR 24/23 A2993 RMK AO2
KBPT 200941Z AUTO 00000KT 1 1/2SM BR CLR 24/23 A2993 RMK AO2 T02390228
KBPT 200933Z AUTO 00000KT 3SM BR CLR 24/24 A2993 RMK AO2 T02440239
KBPT 200922Z AUTO 00000KT 1 3/4SM BR CLR 24/23 A2994 RMK AO2 T02390228
KBPT 200853Z AUTO 00000KT 5SM BR FEW002 25/23 A2994 RMK AO2 SLP139 T02500233 56006
KBPT 200851Z AUTO 32003KT 2 1/2SM BR FEW002 25/23 A2994 RMK AO2
KBPT 200849Z AUTO 32003KT 1 1/4SM BR FEW002 25/23 A2994 RMK AO2
KBPT 200842Z AUTO 00000KT 3/4SM R12/3500VP6000FT BR VV002 26/24 A2994 RMK AO2 T02560239
KBPT 200832Z AUTO 00000KT 1SM R12/P6000FT BR CLR 24/23 A2994 RMK AO2 VIS 1/2V2 1/2 T02440233
KBPT 200825Z AUTO 00000KT 1 1/2SM BR CLR 25/24 A2994 RMK AO2 VIS 3/4V5 T02500239
KBPT 200753Z AUTO 34003KT 5SM BR CLR 25/24 A2995 RMK AO2 SLP140 T02500239
KBPT 200653Z AUTO 00000KT 10SM CLR 26/24 A2995 RMK AO2 SLP142 T02560239
KBPT 200553Z AUTO 00000KT 10SM CLR 26/24 A2996 RMK AO2 SLP145 60000 T02560239 10300 20250 403440244 51009